Monday, December 16, 2019, 12:23 PM GMT
Back to Local

CYUL, Montreal / Pierre Elliot Trudeau International Airport, Que

Location: , , Canada Lat: 45.467
Local Time: 12:23 PM GMT (12:23 GMT) Lon: -73.75
Time Zone: GMT Elev: 101 ft

Show me the last for .
Show Coded

Time T Td Feel RH Dir Speed Gust Alt SLP Vis Weather Sky Remarks
2019-12-16 12:00 10 3 -3 72 240° 10 - 30.23 30.24 30 FEW010 FEW180 FEW240 None
2019-12-16 11:00 12 5 0 72 240° 9 - 30.21 30.22 15 CLR None
2019-12-16 10:00 12 5 0 72 240° 9 - 30.20 30.21 15 FEW025 None
2019-12-16 09:00 14 5 0 66 260° 13 - 30.18 30.19 15 FEW025 None
2019-12-16 08:00 14 5 -5 66 270° 16 23 30.18 30.19 15 FEW025 None
2019-12-16 07:00 14 5 -5 66 280° 16 24 30.15 30.16 15 SCT023 None
2019-12-16 06:00 14 3 -5 61 280° 16 25 30.12 30.13 15 SCT025 None
2019-12-16 05:00 16 3 -3 56 280° 18 26 30.10 30.11 15 BKN030 None
2019-12-16 04:00 16 5 -5 61 270° 23 32 30.08 30.09 15 BKN033 None
2019-12-16 03:00 18 7 -1 61 270° 18 28 30.03 30.04 15 BKN035 None
2019-12-16 02:37 18 7 -2 61 270° 21 30 30.02 30.03 15 -SHSN BKN028 None
2019-12-16 02:29 18 7 -1 61 280° 16 25 30.02 30.03 15 SCT025 None
2019-12-16 02:00 18 7 -1 61 280° 18 28 30.00 30.01 15 -SHSN SCT025 None
2019-12-16 01:00 18 7 -4 61 270° 26 40 29.97 29.98 15 FEW030 None
2019-12-16 00:00 19 9 0 62 280° 24 32 29.95 29.96 15 VCSH SCT030 None
2019-12-15 23:00 19 10 0 67 270° 20 31 29.89 29.90 15 FEW028 FEW095 None
2019-12-15 22:45 19 10 -1 67 270° 25 35 29.88 29.89 15 FEW030 FEW095 None
2019-12-15 22:00 21 10 2 62 260° 24 36 29.84 29.85 15 -SHSN BKN025 Pressure rising rapidly
2019-12-15 21:31 21 12 2 67 260° 25 32 29.80 29.81 15 -SHSN BKN025 BKN095 Pressure rising rapidly
2019-12-15 21:00 21 10 2 62 270° 24 36 29.77 29.78 15 SCT028 BKN095 Pressure rising rapidly
2019-12-15 20:33 21 12 2 67 270° 25 35 29.73 29.74 15 FEW025 BKN100 Pressure rising rapidly
2019-12-15 20:00 23 12 4 62 280° 26 37 29.70 29.71 15 -SHSN BKN020 BKN090 Pressure rising rapidly
2019-12-15 19:21 23 14 4 67 270° 23 35 29.66 29.67 15 -SHSN BKN025 BKN100 Pressure rising rapidly
2019-12-15 19:00 25 16 7 68 280° 22 35 29.63 29.64 15 BKN022 OVC100 Pressure rising rapidly
2019-12-15 18:00 25 16 9 68 280° 17 26 29.58 29.59 15 FEW022 BKN110 None
2019-12-15 17:28 25 18 9 73 280° 15 24 29.56 29.57 15 FEW018 FEW055 BKN110 Virga in the vinicity
2019-12-15 17:00 25 16 7 68 280° 28 36 29.57 29.58 15 -SHSN FEW018 FEW040 SCT075 BKN110 Pressure rising rapidly
2019-12-15 16:00 27 19 9 73 260° 28 36 29.52 29.53 12 -SHSN SCT018 BKN050 OVC095 None
2019-12-15 15:00 28 21 12 74 270° 25 33 29.49 29.50 15 -SHSN BKN018 OVC090 Pressure rising rapidly
2019-12-15 14:20 28 21 11 74 270° 29 39 29.44 29.45 15 SCT020 BKN085 Pressure rising rapidly
2019-12-15 14:00 28 21 11 74 270° 25 37 29.42 29.43 15 -SN BKN019 OVC085 Pressure rising rapidly
2019-12-15 13:00 30 25 14 80 270° 23 35 29.38 29.39 15 -SN BKN016 OVC025 Pressure rising rapidly

Support USWX by starting your Amazon purchase here.